sensor_id;sensor_type;location;lat;lon;timestamp;P1;durP1;ratioP1;P2;durP2;ratioP2
12635;SDS011;6383;50.830;7.210;2023-03-14T00:01:09;5.63;;;1.67;;
12635;SDS011;6383;50.830;7.210;2023-03-14T00:03:40;3.38;;;1.23;;
12635;SDS011;6383;50.830;7.210;2023-03-14T00:06:07;4.10;;;1.10;;
12635;SDS011;6383;50.830;7.210;2023-03-14T00:08:38;7.30;;;1.70;;
12635;SDS011;6383;50.830;7.210;2023-03-14T00:11:09;7.38;;;1.23;;
12635;SDS011;6383;50.830;7.210;2023-03-14T00:13:39;3.85;;;1.25;;
12635;SDS011;6383;50.830;7.210;2023-03-14T00:16:09;4.75;;;1.17;;
12635;SDS011;6383;50.830;7.210;2023-03-14T00:18:39;5.63;;;1.60;;
12635;SDS011;6383;50.830;7.210;2023-03-14T00:21:08;4.65;;;1.52;;
12635;SDS011;6383;50.830;7.210;2023-03-14T00:23:40;4.82;;;1.08;;
12635;SDS011;6383;50.830;7.210;2023-03-14T00:26:11;4.90;;;1.65;;
12635;SDS011;6383;50.830;7.210;2023-03-14T00:28:40;4.32;;;1.60;;
12635;SDS011;6383;50.830;7.210;2023-03-14T00:31:12;5.72;;;1.33;;
12635;SDS011;6383;50.830;7.210;2023-03-14T00:33:41;7.05;;;1.50;;
12635;SDS011;6383;50.830;7.210;2023-03-14T00:36:13;3.35;;;1.40;;
12635;SDS011;6383;50.830;7.210;2023-03-14T00:38:44;11.07;;;1.90;;
12635;SDS011;6383;50.830;7.210;2023-03-14T00:41:19;7.30;;;2.22;;
12635;SDS011;6383;50.830;7.210;2023-03-14T00:43:49;8.43;;;2.33;;
12635;SDS011;6383;50.830;7.210;2023-03-14T00:46:18;4.43;;;1.70;;
12635;SDS011;6383;50.830;7.210;2023-03-14T00:48:47;8.07;;;2.08;;
12635;SDS011;6383;50.830;7.210;2023-03-14T00:51:17;7.05;;;1.55;;
12635;SDS011;6383;50.830;7.210;2023-03-14T00:53:45;9.02;;;2.40;;
12635;SDS011;6383;50.830;7.210;2023-03-14T00:56:13;5.05;;;1.83;;
12635;SDS011;6383;50.830;7.210;2023-03-14T00:58:42;7.95;;;1.80;;
12635;SDS011;6383;50.830;7.210;2023-03-14T01:01:12;6.75;;;1.58;;
12635;SDS011;6383;50.830;7.210;2023-03-14T01:03:41;6.43;;;1.67;;
12635;SDS011;6383;50.830;7.210;2023-03-14T01:06:10;12.68;;;1.85;;
12635;SDS011;6383;50.830;7.210;2023-03-14T01:08:42;6.72;;;1.52;;
12635;SDS011;6383;50.830;7.210;2023-03-14T01:11:13;7.00;;;1.90;;
12635;SDS011;6383;50.830;7.210;2023-03-14T01:13:43;9.32;;;1.77;;
12635;SDS011;6383;50.830;7.210;2023-03-14T01:16:12;7.50;;;2.00;;
12635;SDS011;6383;50.830;7.210;2023-03-14T01:18:42;6.28;;;1.45;;
12635;SDS011;6383;50.830;7.210;2023-03-14T01:21:13;7.25;;;1.77;;
12635;SDS011;6383;50.830;7.210;2023-03-14T01:23:45;10.18;;;2.13;;
12635;SDS011;6383;50.830;7.210;2023-03-14T01:26:15;5.13;;;1.65;;
12635;SDS011;6383;50.830;7.210;2023-03-14T01:28:46;8.55;;;2.15;;
12635;SDS011;6383;50.830;7.210;2023-03-14T01:31:15;6.03;;;1.42;;
12635;SDS011;6383;50.830;7.210;2023-03-14T01:33:45;4.78;;;1.45;;
12635;SDS011;6383;50.830;7.210;2023-03-14T01:36:14;6.82;;;2.38;;
12635;SDS011;6383;50.830;7.210;2023-03-14T01:38:45;4.95;;;1.60;;
12635;SDS011;6383;50.830;7.210;2023-03-14T01:41:14;7.07;;;1.58;;
12635;SDS011;6383;50.830;7.210;2023-03-14T01:43:46;5.90;;;2.05;;
12635;SDS011;6383;50.830;7.210;2023-03-14T01:46:18;6.82;;;1.67;;
12635;SDS011;6383;50.830;7.210;2023-03-14T01:48:52;6.30;;;1.67;;
12635;SDS011;6383;50.830;7.210;2023-03-14T01:51:27;8.48;;;2.10;;
12635;SDS011;6383;50.830;7.210;2023-03-14T01:54:04;5.88;;;1.48;;
12635;SDS011;6383;50.830;7.210;2023-03-14T01:56:36;10.00;;;2.40;;
12635;SDS011;6383;50.830;7.210;2023-03-14T01:59:06;7.05;;;1.83;;
12635;SDS011;6383;50.830;7.210;2023-03-14T02:01:36;5.82;;;1.30;;
12635;SDS011;6383;50.830;7.210;2023-03-14T02:04:05;11.25;;;2.92;;
12635;SDS011;6383;50.830;7.210;2023-03-14T02:06:39;8.02;;;2.22;;
12635;SDS011;6383;50.830;7.210;2023-03-14T02:09:18;7.60;;;2.28;;
12635;SDS011;6383;50.830;7.210;2023-03-14T02:11:48;5.90;;;1.73;;
12635;SDS011;6383;50.830;7.210;2023-03-14T02:14:21;32.55;;;3.53;;
12635;SDS011;6383;50.830;7.210;2023-03-14T02:16:57;11.52;;;2.13;;
12635;SDS011;6383;50.830;7.210;2023-03-14T02:19:31;8.57;;;1.90;;
12635;SDS011;6383;50.830;7.210;2023-03-14T02:22:18;5.38;;;1.20;;
12635;SDS011;6383;50.830;7.210;2023-03-14T02:24:50;5.68;;;1.70;;
12635;SDS011;6383;50.830;7.210;2023-03-14T02:27:30;2.97;;;0.80;;
12635;SDS011;6383;50.830;7.210;2023-03-14T02:30:00;4.70;;;1.45;;
12635;SDS011;6383;50.830;7.210;2023-03-14T02:32:31;6.40;;;1.42;;
12635;SDS011;6383;50.830;7.210;2023-03-14T02:35:03;6.55;;;1.55;;
12635;SDS011;6383;50.830;7.210;2023-03-14T02:37:36;9.77;;;1.77;;
12635;SDS011;6383;50.830;7.210;2023-03-14T02:40:08;7.82;;;1.70;;
12635;SDS011;6383;50.830;7.210;2023-03-14T02:42:39;4.25;;;1.70;;
12635;SDS011;6383;50.830;7.210;2023-03-14T02:48:17;7.97;;;1.70;;
12635;SDS011;6383;50.830;7.210;2023-03-14T02:50:50;8.25;;;1.67;;
12635;SDS011;6383;50.830;7.210;2023-03-14T02:53:23;10.55;;;2.00;;
12635;SDS011;6383;50.830;7.210;2023-03-14T02:55:53;9.52;;;2.10;;
12635;SDS011;6383;50.830;7.210;2023-03-14T02:58:23;10.43;;;1.90;;
12635;SDS011;6383;50.830;7.210;2023-03-14T03:00:50;11.07;;;2.97;;
12635;SDS011;6383;50.830;7.210;2023-03-14T03:03:19;14.15;;;2.28;;
12635;SDS011;6383;50.830;7.210;2023-03-14T03:05:49;10.60;;;2.10;;
12635;SDS011;6383;50.830;7.210;2023-03-14T03:08:19;9.73;;;2.20;;
12635;SDS011;6383;50.830;7.210;2023-03-14T03:10:49;7.88;;;1.92;;
12635;SDS011;6383;50.830;7.210;2023-03-14T03:13:19;7.28;;;2.05;;
12635;SDS011;6383;50.830;7.210;2023-03-14T03:15:49;9.98;;;2.28;;
12635;SDS011;6383;50.830;7.210;2023-03-14T03:18:18;11.48;;;2.72;;
12635;SDS011;6383;50.830;7.210;2023-03-14T03:20:46;13.65;;;2.47;;
12635;SDS011;6383;50.830;7.210;2023-03-14T03:23:15;19.13;;;2.95;;
12635;SDS011;6383;50.830;7.210;2023-03-14T03:25:47;13.88;;;2.40;;
12635;SDS011;6383;50.830;7.210;2023-03-14T03:28:15;10.65;;;2.33;;
12635;SDS011;6383;50.830;7.210;2023-03-14T03:30:43;18.33;;;2.80;;
12635;SDS011;6383;50.830;7.210;2023-03-14T03:33:14;11.00;;;1.95;;
12635;SDS011;6383;50.830;7.210;2023-03-14T03:35:43;17.77;;;3.33;;
12635;SDS011;6383;50.830;7.210;2023-03-14T03:38:12;15.73;;;2.80;;
12635;SDS011;6383;50.830;7.210;2023-03-14T03:40:41;10.25;;;2.30;;
12635;SDS011;6383;50.830;7.210;2023-03-14T03:43:10;11.52;;;2.55;;
12635;SDS011;6383;50.830;7.210;2023-03-14T03:45:38;8.15;;;2.30;;
12635;SDS011;6383;50.830;7.210;2023-03-14T03:48:07;15.20;;;3.53;;
12635;SDS011;6383;50.830;7.210;2023-03-14T03:50:37;11.38;;;2.65;;
12635;SDS011;6383;50.830;7.210;2023-03-14T03:53:10;17.05;;;2.65;;
12635;SDS011;6383;50.830;7.210;2023-03-14T03:55:40;16.50;;;2.60;;
12635;SDS011;6383;50.830;7.210;2023-03-14T03:58:08;15.50;;;2.67;;
12635;SDS011;6383;50.830;7.210;2023-03-14T04:00:37;11.57;;;2.40;;
12635;SDS011;6383;50.830;7.210;2023-03-14T04:03:05;17.88;;;3.13;;
12635;SDS011;6383;50.830;7.210;2023-03-14T04:05:33;17.73;;;3.15;;
12635;SDS011;6383;50.830;7.210;2023-03-14T04:08:04;8.73;;;2.17;;
12635;SDS011;6383;50.830;7.210;2023-03-14T04:10:33;13.55;;;3.50;;
12635;SDS011;6383;50.830;7.210;2023-03-14T04:13:02;9.30;;;1.85;;
12635;SDS011;6383;50.830;7.210;2023-03-14T04:15:30;9.93;;;1.90;;
12635;SDS011;6383;50.830;7.210;2023-03-14T04:17:59;12.35;;;1.95;;
12635;SDS011;6383;50.830;7.210;2023-03-14T04:20:27;13.93;;;2.45;;
12635;SDS011;6383;50.830;7.210;2023-03-14T04:22:56;14.10;;;2.47;;
12635;SDS011;6383;50.830;7.210;2023-03-14T04:25:25;12.25;;;3.33;;
12635;SDS011;6383;50.830;7.210;2023-03-14T04:27:53;10.23;;;2.03;;
12635;SDS011;6383;50.830;7.210;2023-03-14T04:30:22;7.40;;;1.75;;
12635;SDS011;6383;50.830;7.210;2023-03-14T04:32:49;8.45;;;1.50;;
12635;SDS011;6383;50.830;7.210;2023-03-14T04:35:18;9.57;;;1.52;;
12635;SDS011;6383;50.830;7.210;2023-03-14T04:37:48;7.00;;;1.30;;
12635;SDS011;6383;50.830;7.210;2023-03-14T04:40:19;6.20;;;1.33;;
12635;SDS011;6383;50.830;7.210;2023-03-14T04:42:47;5.40;;;1.42;;
12635;SDS011;6383;50.830;7.210;2023-03-14T04:45:17;8.43;;;1.63;;
12635;SDS011;6383;50.830;7.210;2023-03-14T04:47:46;5.63;;;1.55;;
12635;SDS011;6383;50.830;7.210;2023-03-14T04:50:15;4.57;;;1.00;;
12635;SDS011;6383;50.830;7.210;2023-03-14T04:52:44;3.53;;;1.10;;
12635;SDS011;6383;50.830;7.210;2023-03-14T04:55:13;4.15;;;1.02;;
12635;SDS011;6383;50.830;7.210;2023-03-14T04:57:42;3.83;;;1.33;;
12635;SDS011;6383;50.830;7.210;2023-03-14T05:00:12;3.33;;;1.25;;
12635;SDS011;6383;50.830;7.210;2023-03-14T05:02:41;2.88;;;1.15;;
12635;SDS011;6383;50.830;7.210;2023-03-14T05:05:08;4.68;;;1.10;;
12635;SDS011;6383;50.830;7.210;2023-03-14T05:07:36;5.07;;;0.95;;
12635;SDS011;6383;50.830;7.210;2023-03-14T05:10:06;5.53;;;1.00;;
12635;SDS011;6383;50.830;7.210;2023-03-14T05:12:34;3.72;;;1.10;;
12635;SDS011;6383;50.830;7.210;2023-03-14T05:15:04;2.85;;;0.80;;
12635;SDS011;6383;50.830;7.210;2023-03-14T05:17:33;3.33;;;0.93;;
12635;SDS011;6383;50.830;7.210;2023-03-14T05:20:02;2.17;;;0.90;;
12635;SDS011;6383;50.830;7.210;2023-03-14T05:22:34;2.92;;;0.63;;
12635;SDS011;6383;50.830;7.210;2023-03-14T05:25:03;3.35;;;0.75;;
12635;SDS011;6383;50.830;7.210;2023-03-14T05:27:33;2.70;;;0.70;;
12635;SDS011;6383;50.830;7.210;2023-03-14T05:30:01;2.00;;;0.85;;
12635;SDS011;6383;50.830;7.210;2023-03-14T05:32:31;1.98;;;0.60;;
12635;SDS011;6383;50.830;7.210;2023-03-14T05:35:00;1.52;;;0.77;;
12635;SDS011;6383;50.830;7.210;2023-03-14T05:37:29;1.00;;;0.60;;
12635;SDS011;6383;50.830;7.210;2023-03-14T05:39:58;2.40;;;0.70;;
12635;SDS011;6383;50.830;7.210;2023-03-14T05:42:25;0.50;;;0.45;;
12635;SDS011;6383;50.830;7.210;2023-03-14T05:44:53;1.40;;;0.60;;
12635;SDS011;6383;50.830;7.210;2023-03-14T05:47:22;1.60;;;0.77;;
12635;SDS011;6383;50.830;7.210;2023-03-14T05:49:52;2.20;;;0.70;;
12635;SDS011;6383;50.830;7.210;2023-03-14T05:52:21;1.27;;;0.52;;
12635;SDS011;6383;50.830;7.210;2023-03-14T05:54:51;1.10;;;0.63;;
12635;SDS011;6383;50.830;7.210;2023-03-14T05:57:18;1.95;;;0.60;;
12635;SDS011;6383;50.830;7.210;2023-03-14T05:59:46;1.77;;;0.77;;
12635;SDS011;6383;50.830;7.210;2023-03-14T06:02:15;2.47;;;0.50;;
12635;SDS011;6383;50.830;7.210;2023-03-14T06:04:43;2.00;;;0.30;;
12635;SDS011;6383;50.830;7.210;2023-03-14T06:07:12;1.13;;;0.40;;
12635;SDS011;6383;50.830;7.210;2023-03-14T06:09:40;3.22;;;0.52;;
12635;SDS011;6383;50.830;7.210;2023-03-14T06:12:09;0.82;;;0.30;;
12635;SDS011;6383;50.830;7.210;2023-03-14T06:14:36;1.85;;;0.70;;
12635;SDS011;6383;50.830;7.210;2023-03-14T06:17:05;1.67;;;0.60;;
12635;SDS011;6383;50.830;7.210;2023-03-14T06:19:34;1.55;;;0.55;;
12635;SDS011;6383;50.830;7.210;2023-03-14T06:22:02;0.30;;;0.30;;
12635;SDS011;6383;50.830;7.210;2023-03-14T06:24:33;2.75;;;0.45;;
12635;SDS011;6383;50.830;7.210;2023-03-14T06:27:02;0.63;;;0.60;;
12635;SDS011;6383;50.830;7.210;2023-03-14T06:29:31;4.43;;;0.93;;
12635;SDS011;6383;50.830;7.210;2023-03-14T06:31:59;0.63;;;0.52;;
12635;SDS011;6383;50.830;7.210;2023-03-14T06:34:27;0.65;;;0.40;;
12635;SDS011;6383;50.830;7.210;2023-03-14T06:36:56;0.65;;;0.40;;
12635;SDS011;6383;50.830;7.210;2023-03-14T06:39:25;1.85;;;0.35;;
12635;SDS011;6383;50.830;7.210;2023-03-14T06:41:54;1.55;;;0.40;;
12635;SDS011;6383;50.830;7.210;2023-03-14T06:44:21;1.40;;;0.50;;
12635;SDS011;6383;50.830;7.210;2023-03-14T06:46:49;1.17;;;0.35;;
12635;SDS011;6383;50.830;7.210;2023-03-14T06:49:18;0.88;;;0.47;;
12635;SDS011;6383;50.830;7.210;2023-03-14T06:51:45;2.60;;;0.50;;
12635;SDS011;6383;50.830;7.210;2023-03-14T06:54:14;0.30;;;0.30;;
12635;SDS011;6383;50.830;7.210;2023-03-14T06:56:44;2.17;;;0.40;;
12635;SDS011;6383;50.830;7.210;2023-03-14T06:59:14;0.20;;;0.20;;
12635;SDS011;6383;50.830;7.210;2023-03-14T07:01:43;1.85;;;0.45;;
12635;SDS011;6383;50.830;7.210;2023-03-14T07:04:12;0.47;;;0.47;;
12635;SDS011;6383;50.830;7.210;2023-03-14T07:06:40;3.72;;;0.63;;
12635;SDS011;6383;50.830;7.210;2023-03-14T07:09:11;2.72;;;0.30;;
12635;SDS011;6383;50.830;7.210;2023-03-14T07:11:41;0.50;;;0.47;;
12635;SDS011;6383;50.830;7.210;2023-03-14T07:14:10;0.57;;;0.57;;
12635;SDS011;6383;50.830;7.210;2023-03-14T07:16:39;2.08;;;0.30;;
12635;SDS011;6383;50.830;7.210;2023-03-14T07:19:08;2.50;;;0.30;;
12635;SDS011;6383;50.830;7.210;2023-03-14T07:21:37;1.13;;;0.30;;
12635;SDS011;6383;50.830;7.210;2023-03-14T07:24:06;1.40;;;0.30;;
12635;SDS011;6383;50.830;7.210;2023-03-14T07:26:34;0.30;;;0.30;;
12635;SDS011;6383;50.830;7.210;2023-03-14T07:29:04;1.02;;;0.25;;
12635;SDS011;6383;50.830;7.210;2023-03-14T07:31:32;0.30;;;0.30;;
12635;SDS011;6383;50.830;7.210;2023-03-14T07:34:03;0.32;;;0.32;;
12635;SDS011;6383;50.830;7.210;2023-03-14T07:36:32;1.13;;;0.40;;
12635;SDS011;6383;50.830;7.210;2023-03-14T07:39:01;1.25;;;0.32;;
12635;SDS011;6383;50.830;7.210;2023-03-14T07:41:31;0.20;;;0.20;;
12635;SDS011;6383;50.830;7.210;2023-03-14T07:43:59;0.25;;;0.25;;
12635;SDS011;6383;50.830;7.210;2023-03-14T07:46:27;1.65;;;0.40;;
12635;SDS011;6383;50.830;7.210;2023-03-14T07:48:56;0.20;;;0.20;;
12635;SDS011;6383;50.830;7.210;2023-03-14T07:51:26;0.20;;;0.15;;
12635;SDS011;6383;50.830;7.210;2023-03-14T07:53:55;0.22;;;0.22;;
12635;SDS011;6383;50.830;7.210;2023-03-14T07:56:24;0.30;;;0.30;;
12635;SDS011;6383;50.830;7.210;2023-03-14T07:58:53;0.73;;;0.30;;
12635;SDS011;6383;50.830;7.210;2023-03-14T08:01:22;1.05;;;0.55;;
12635;SDS011;6383;50.830;7.210;2023-03-14T08:03:49;0.93;;;0.25;;
12635;SDS011;6383;50.830;7.210;2023-03-14T08:06:18;0.32;;;0.32;;
12635;SDS011;6383;50.830;7.210;2023-03-14T08:08:47;0.40;;;0.40;;
12635;SDS011;6383;50.830;7.210;2023-03-14T08:11:16;0.30;;;0.30;;
12635;SDS011;6383;50.830;7.210;2023-03-14T08:13:45;0.85;;;0.40;;
12635;SDS011;6383;50.830;7.210;2023-03-14T08:16:17;0.65;;;0.35;;
12635;SDS011;6383;50.830;7.210;2023-03-14T08:18:46;0.35;;;0.35;;
12635;SDS011;6383;50.830;7.210;2023-03-14T08:21:15;0.20;;;0.20;;
12635;SDS011;6383;50.830;7.210;2023-03-14T08:23:44;1.08;;;0.28;;
12635;SDS011;6383;50.830;7.210;2023-03-14T08:26:13;1.77;;;0.35;;
12635;SDS011;6383;50.830;7.210;2023-03-14T08:28:43;0.20;;;0.20;;
12635;SDS011;6383;50.830;7.210;2023-03-14T08:31:12;0.20;;;0.20;;
12635;SDS011;6383;50.830;7.210;2023-03-14T08:33:40;0.20;;;0.20;;
12635;SDS011;6383;50.830;7.210;2023-03-14T08:36:09;0.20;;;0.20;;
12635;SDS011;6383;50.830;7.210;2023-03-14T08:38:38;0.28;;;0.28;;
12635;SDS011;6383;50.830;7.210;2023-03-14T08:41:09;0.30;;;0.30;;
12635;SDS011;6383;50.830;7.210;2023-03-14T08:43:38;0.13;;;0.13;;
12635;SDS011;6383;50.830;7.210;2023-03-14T08:46:08;5.38;;;0.25;;
12635;SDS011;6383;50.830;7.210;2023-03-14T08:48:36;0.20;;;0.20;;
12635;SDS011;6383;50.830;7.210;2023-03-14T08:51:05;0.30;;;0.20;;
12635;SDS011;6383;50.830;7.210;2023-03-14T08:53:36;0.20;;;0.20;;
12635;SDS011;6383;50.830;7.210;2023-03-14T08:56:05;0.70;;;0.20;;
12635;SDS011;6383;50.830;7.210;2023-03-14T08:58:38;1.23;;;0.13;;
12635;SDS011;6383;50.830;7.210;2023-03-14T09:01:09;0.10;;;0.10;;
12635;SDS011;6383;50.830;7.210;2023-03-14T09:03:39;0.40;;;0.10;;
12635;SDS011;6383;50.830;7.210;2023-03-14T09:06:09;0.10;;;0.10;;
12635;SDS011;6383;50.830;7.210;2023-03-14T09:08:38;0.22;;;0.22;;
12635;SDS011;6383;50.830;7.210;2023-03-14T09:11:07;0.50;;;0.30;;
12635;SDS011;6383;50.830;7.210;2023-03-14T09:13:38;0.10;;;0.10;;
12635;SDS011;6383;50.830;7.210;2023-03-14T09:16:07;2.47;;;0.20;;
12635;SDS011;6383;50.830;7.210;2023-03-14T09:18:36;1.15;;;0.20;;
12635;SDS011;6383;50.830;7.210;2023-03-14T09:21:05;0.15;;;0.15;;
12635;SDS011;6383;50.830;7.210;2023-03-14T09:23:34;2.53;;;0.28;;
12635;SDS011;6383;50.830;7.210;2023-03-14T09:26:03;0.38;;;0.20;;
12635;SDS011;6383;50.830;7.210;2023-03-14T09:28:33;3.03;;;0.75;;
12635;SDS011;6383;50.830;7.210;2023-03-14T09:31:06;0.40;;;0.40;;
12635;SDS011;6383;50.830;7.210;2023-03-14T09:33:36;0.45;;;0.30;;
12635;SDS011;6383;50.830;7.210;2023-03-14T09:36:06;0.28;;;0.20;;
12635;SDS011;6383;50.830;7.210;2023-03-14T09:38:35;0.43;;;0.38;;
12635;SDS011;6383;50.830;7.210;2023-03-14T09:41:09;1.27;;;0.40;;
12635;SDS011;6383;50.830;7.210;2023-03-14T09:43:44;1.17;;;0.30;;
12635;SDS011;6383;50.830;7.210;2023-03-14T09:46:17;0.40;;;0.40;;
12635;SDS011;6383;50.830;7.210;2023-03-14T09:48:47;0.30;;;0.30;;
12635;SDS011;6383;50.830;7.210;2023-03-14T09:51:17;1.17;;;0.40;;
12635;SDS011;6383;50.830;7.210;2023-03-14T09:53:49;2.05;;;0.60;;
12635;SDS011;6383;50.830;7.210;2023-03-14T09:56:18;0.63;;;0.63;;
12635;SDS011;6383;50.830;7.210;2023-03-14T09:58:50;0.45;;;0.40;;
12635;SDS011;6383;50.830;7.210;2023-03-14T10:01:24;2.53;;;0.47;;
12635;SDS011;6383;50.830;7.210;2023-03-14T10:03:54;11.07;;;0.80;;
12635;SDS011;6383;50.830;7.210;2023-03-14T10:06:25;4.35;;;0.52;;
12635;SDS011;6383;50.830;7.210;2023-03-14T10:08:56;1.38;;;0.50;;
12635;SDS011;6383;50.830;7.210;2023-03-14T10:11:25;2.53;;;0.70;;
12635;SDS011;6383;50.830;7.210;2023-03-14T10:14:06;3.33;;;0.80;;
12635;SDS011;6383;50.830;7.210;2023-03-14T10:16:44;2.17;;;1.55;;
12635;SDS011;6383;50.830;7.210;2023-03-14T10:19:15;2.33;;;1.20;;
12635;SDS011;6383;50.830;7.210;2023-03-14T10:21:48;1.45;;;1.40;;
12635;SDS011;6383;50.830;7.210;2023-03-14T10:24:21;2.17;;;2.05;;
12635;SDS011;6383;50.830;7.210;2023-03-14T10:29:28;1.30;;;1.30;;
12635;SDS011;6383;50.830;7.210;2023-03-14T10:31:59;6.10;;;1.88;;
12635;SDS011;6383;50.830;7.210;2023-03-14T10:34:29;2.35;;;1.83;;
12635;SDS011;6383;50.830;7.210;2023-03-14T10:37:03;1.98;;;1.75;;
12635;SDS011;6383;50.830;7.210;2023-03-14T10:39:37;2.05;;;1.95;;
12635;SDS011;6383;50.830;7.210;2023-03-14T10:42:14;4.43;;;1.83;;
12635;SDS011;6383;50.830;7.210;2023-03-14T10:44:48;3.10;;;2.88;;
12635;SDS011;6383;50.830;7.210;2023-03-14T10:47:24;2.70;;;2.50;;
12635;SDS011;6383;50.830;7.210;2023-03-14T10:49:56;5.20;;;2.65;;
12635;SDS011;6383;50.830;7.210;2023-03-14T10:52:27;2.70;;;2.20;;
12635;SDS011;6383;50.830;7.210;2023-03-14T10:54:58;2.95;;;2.65;;
12635;SDS011;6383;50.830;7.210;2023-03-14T10:57:27;3.50;;;2.50;;
12635;SDS011;6383;50.830;7.210;2023-03-14T10:59:56;7.45;;;2.67;;
12635;SDS011;6383;50.830;7.210;2023-03-14T11:02:34;6.40;;;2.70;;
12635;SDS011;6383;50.830;7.210;2023-03-14T11:05:17;4.75;;;3.45;;
12635;SDS011;6383;50.830;7.210;2023-03-14T11:07:52;3.88;;;2.72;;
12635;SDS011;6383;50.830;7.210;2023-03-14T11:10:26;4.38;;;3.20;;
12635;SDS011;6383;50.830;7.210;2023-03-14T11:13:01;2.92;;;2.67;;
12635;SDS011;6383;50.830;7.210;2023-03-14T11:15:44;3.83;;;2.80;;
12635;SDS011;6383;50.830;7.210;2023-03-14T11:18:26;2.35;;;2.20;;
12635;SDS011;6383;50.830;7.210;2023-03-14T11:21:08;4.38;;;2.63;;
12635;SDS011;6383;50.830;7.210;2023-03-14T11:23:41;4.25;;;3.05;;
12635;SDS011;6383;50.830;7.210;2023-03-14T11:26:19;3.28;;;2.03;;
12635;SDS011;6383;50.830;7.210;2023-03-14T11:28:56;4.38;;;2.65;;
12635;SDS011;6383;50.830;7.210;2023-03-14T11:31:27;3.08;;;2.60;;
12635;SDS011;6383;50.830;7.210;2023-03-14T11:33:59;6.05;;;2.50;;
12635;SDS011;6383;50.830;7.210;2023-03-14T11:36:33;3.95;;;2.78;;
12635;SDS011;6383;50.830;7.210;2023-03-14T11:39:07;2.65;;;2.25;;
12635;SDS011;6383;50.830;7.210;2023-03-14T11:41:42;5.93;;;2.30;;
12635;SDS011;6383;50.830;7.210;2023-03-14T11:44:16;8.95;;;3.08;;
12635;SDS011;6383;50.830;7.210;2023-03-14T11:46:48;7.07;;;2.25;;
12635;SDS011;6383;50.830;7.210;2023-03-14T11:49:26;3.95;;;2.53;;
12635;SDS011;6383;50.830;7.210;2023-03-14T11:52:03;2.90;;;2.63;;
12635;SDS011;6383;50.830;7.210;2023-03-14T11:54:39;2.85;;;2.22;;
12635;SDS011;6383;50.830;7.210;2023-03-14T11:57:14;2.95;;;2.22;;
12635;SDS011;6383;50.830;7.210;2023-03-14T11:59:46;3.85;;;2.70;;
12635;SDS011;6383;50.830;7.210;2023-03-14T12:02:21;1.92;;;1.83;;
12635;SDS011;6383;50.830;7.210;2023-03-14T12:05:14;6.25;;;2.72;;
12635;SDS011;6383;50.830;7.210;2023-03-14T12:11:05;2.05;;;0.68;;
12635;SDS011;6383;50.830;7.210;2023-03-14T12:13:40;1.02;;;0.68;;
12635;SDS011;6383;50.830;7.210;2023-03-14T12:16:19;0.60;;;0.60;;
12635;SDS011;6383;50.830;7.210;2023-03-14T12:18:58;5.18;;;0.55;;
12635;SDS011;6383;50.830;7.210;2023-03-14T12:21:46;1.25;;;0.70;;
12635;SDS011;6383;50.830;7.210;2023-03-14T12:24:17;4.18;;;1.13;;
12635;SDS011;6383;50.830;7.210;2023-03-14T12:26:51;3.53;;;0.85;;
12635;SDS011;6383;50.830;7.210;2023-03-14T12:29:21;3.95;;;0.88;;
12635;SDS011;6383;50.830;7.210;2023-03-14T12:32:06;2.20;;;1.23;;
12635;SDS011;6383;50.830;7.210;2023-03-14T12:34:38;2.72;;;1.00;;
12635;SDS011;6383;50.830;7.210;2023-03-14T12:37:14;3.05;;;1.15;;
12635;SDS011;6383;50.830;7.210;2023-03-14T12:39:56;5.93;;;1.58;;
12635;SDS011;6383;50.830;7.210;2023-03-14T12:42:46;4.88;;;2.17;;
12635;SDS011;6383;50.830;7.210;2023-03-14T12:45:27;4.20;;;1.95;;
12635;SDS011;6383;50.830;7.210;2023-03-14T12:48:00;6.32;;;2.22;;
12635;SDS011;6383;50.830;7.210;2023-03-14T12:50:36;4.32;;;3.03;;
12635;SDS011;6383;50.830;7.210;2023-03-14T12:53:18;3.88;;;3.58;;
12635;SDS011;6383;50.830;7.210;2023-03-14T12:56:09;7.18;;;4.10;;
12635;SDS011;6383;50.830;7.210;2023-03-14T12:58:51;8.10;;;5.72;;
12635;SDS011;6383;50.830;7.210;2023-03-14T13:01:29;7.10;;;4.95;;
12635;SDS011;6383;50.830;7.210;2023-03-14T13:04:02;6.10;;;4.97;;
12635;SDS011;6383;50.830;7.210;2023-03-14T13:09:45;13.60;;;6.50;;
12635;SDS011;6383;50.830;7.210;2023-03-14T13:12:22;10.80;;;5.40;;
12635;SDS011;6383;50.830;7.210;2023-03-14T13:14:57;11.25;;;5.65;;
12635;SDS011;6383;50.830;7.210;2023-03-14T13:17:27;8.82;;;5.10;;
12635;SDS011;6383;50.830;7.210;2023-03-14T13:20:00;4.80;;;4.05;;
12635;SDS011;6383;50.830;7.210;2023-03-14T13:25:06;5.28;;;3.00;;
12635;SDS011;6383;50.830;7.210;2023-03-14T13:27:38;5.45;;;2.90;;
12635;SDS011;6383;50.830;7.210;2023-03-14T13:30:17;5.57;;;2.35;;
12635;SDS011;6383;50.830;7.210;2023-03-14T13:32:50;4.35;;;3.10;;
12635;SDS011;6383;50.830;7.210;2023-03-14T13:35:20;3.45;;;3.15;;
12635;SDS011;6383;50.830;7.210;2023-03-14T13:37:54;5.35;;;3.63;;
12635;SDS011;6383;50.830;7.210;2023-03-14T13:40:29;8.43;;;4.22;;
12635;SDS011;6383;50.830;7.210;2023-03-14T13:42:59;7.63;;;3.92;;
12635;SDS011;6383;50.830;7.210;2023-03-14T13:45:30;12.73;;;3.95;;
12635;SDS011;6383;50.830;7.210;2023-03-14T13:47:59;4.18;;;3.10;;
12635;SDS011;6383;50.830;7.210;2023-03-14T13:50:28;6.75;;;3.40;;
12635;SDS011;6383;50.830;7.210;2023-03-14T13:52:56;6.95;;;2.88;;
12635;SDS011;6383;50.830;7.210;2023-03-14T13:55:27;11.75;;;3.00;;
12635;SDS011;6383;50.830;7.210;2023-03-14T13:57:57;11.05;;;3.88;;
12635;SDS011;6383;50.830;7.210;2023-03-14T14:00:25;7.45;;;2.33;;
12635;SDS011;6383;50.830;7.210;2023-03-14T14:02:55;3.25;;;1.30;;
12635;SDS011;6383;50.830;7.210;2023-03-14T14:05:26;10.43;;;2.40;;
12635;SDS011;6383;50.830;7.210;2023-03-14T14:07:56;8.00;;;2.33;;
12635;SDS011;6383;50.830;7.210;2023-03-14T14:10:25;5.72;;;2.10;;
12635;SDS011;6383;50.830;7.210;2023-03-14T14:12:57;5.40;;;1.77;;
12635;SDS011;6383;50.830;7.210;2023-03-14T14:15:28;8.52;;;1.52;;
12635;SDS011;6383;50.830;7.210;2023-03-14T14:18:00;8.10;;;1.80;;
12635;SDS011;6383;50.830;7.210;2023-03-14T14:20:32;3.95;;;1.63;;
12635;SDS011;6383;50.830;7.210;2023-03-14T14:23:04;7.40;;;2.53;;
12635;SDS011;6383;50.830;7.210;2023-03-14T14:25:36;5.28;;;3.13;;
12635;SDS011;6383;50.830;7.210;2023-03-14T14:28:15;12.07;;;3.03;;
12635;SDS011;6383;50.830;7.210;2023-03-14T14:30:45;8.10;;;3.65;;
12635;SDS011;6383;50.830;7.210;2023-03-14T14:33:18;9.75;;;3.92;;
12635;SDS011;6383;50.830;7.210;2023-03-14T14:35:52;14.18;;;5.32;;
12635;SDS011;6383;50.830;7.210;2023-03-14T14:38:24;15.30;;;6.95;;
12635;SDS011;6383;50.830;7.210;2023-03-14T14:40:56;12.40;;;4.03;;
12635;SDS011;6383;50.830;7.210;2023-03-14T14:43:30;15.95;;;4.18;;
12635;SDS011;6383;50.830;7.210;2023-03-14T14:46:05;13.32;;;5.20;;
12635;SDS011;6383;50.830;7.210;2023-03-14T14:48:37;10.27;;;3.85;;
12635;SDS011;6383;50.830;7.210;2023-03-14T14:51:05;12.82;;;4.28;;
12635;SDS011;6383;50.830;7.210;2023-03-14T14:53:36;12.23;;;3.85;;
12635;SDS011;6383;50.830;7.210;2023-03-14T14:56:13;11.10;;;3.83;;
12635;SDS011;6383;50.830;7.210;2023-03-14T14:58:46;10.57;;;5.22;;
12635;SDS011;6383;50.830;7.210;2023-03-14T15:01:16;17.58;;;3.85;;
12635;SDS011;6383;50.830;7.210;2023-03-14T15:03:48;11.70;;;2.95;;
12635;SDS011;6383;50.830;7.210;2023-03-14T15:06:19;13.80;;;3.95;;
12635;SDS011;6383;50.830;7.210;2023-03-14T15:08:49;19.00;;;3.72;;
12635;SDS011;6383;50.830;7.210;2023-03-14T15:11:19;21.08;;;4.97;;
12635;SDS011;6383;50.830;7.210;2023-03-14T15:13:50;12.27;;;4.10;;
12635;SDS011;6383;50.830;7.210;2023-03-14T15:16:19;14.60;;;3.55;;
12635;SDS011;6383;50.830;7.210;2023-03-14T15:18:50;13.13;;;4.03;;
12635;SDS011;6383;50.830;7.210;2023-03-14T15:21:23;9.50;;;3.08;;
12635;SDS011;6383;50.830;7.210;2023-03-14T15:23:52;11.15;;;3.42;;
12635;SDS011;6383;50.830;7.210;2023-03-14T15:26:24;12.20;;;4.32;;
12635;SDS011;6383;50.830;7.210;2023-03-14T15:28:53;10.13;;;3.60;;
12635;SDS011;6383;50.830;7.210;2023-03-14T15:31:20;15.07;;;3.08;;
12635;SDS011;6383;50.830;7.210;2023-03-14T15:33:49;17.63;;;3.75;;
12635;SDS011;6383;50.830;7.210;2023-03-14T15:36:20;18.25;;;3.83;;